Basin City, Washington
Current Conditions -  °F | °C
As of 9:53 AM on Thursday 30 Oct 2014 (Local Time) from KPSC Reporting Station
Overcast Overcast  
Wind Chill: 52°   Ceiling: 10000
Heat Index: 52°   Visibility: 10mi
Dew Point: 51°   Wind: 3mph
Humidity: 97%   Direction: 340°NNW
Pressure: 30.06"   Gusts: NA
Location:  46.5851°N, 119.156°W
Report Text: KPSC 301653Z 34003KT 10SM OVC100 11/11 A3006 RMK AO2 RAE03 SLP178 P0000 T01110106
Loading
Personal Weather Stations






























Interactive Weather Map
Tropical Storm Tracking
New forecast layout! Learn more

10-Day Weather Forecast

Advertisements
Track Severe Weather on mobile